Salley, SC (29137)

12:02 PM EDT on April 18, 2015 (GMT -0400)
Pendleton Field | | Change Station
CLOSE
Current Station
Personal Weather Station
Location: Swansea, SC
Elevation: 354 ft
Nearby Weather Stations

Elev 354 ft 33.69 °N, 81.23 °W | Updated 3 seconds ago

Overcast
Overcast
70.3 °F
Feels Like 70.3 °F
N
6.0
Wind Variable Wind from SE
Gusts 6.9 mph

Today
High -- | Low -- °F
--% Chance of Precip.
Yesterday
High -- | Low -- °F
Precip. -- in
6:51 AM 7:58 PM
Waning Crescent, 0% visible
Pressure 30.04 in
Visibility 7.0 miles
Clouds Scattered Clouds 1000 ft
Mostly Cloudy 1400 ft
Overcast 2200 ft
Dew Point 66 °F
Humidity 87%
Rainfall 0.20 in
Snow Depth Not available.
UV 3 out of 12
Pollen 8.70 out of 12
Air Quality Not available.
Flu Activity Local Activity
METAR KAIK 181555Z AUTO 00000KT 7SM RA SCT010 BKN014 OVC022 20/17 A3004 RMK AO2

More Conditions Fewer Conditions

Pressure 30.04 in
Visibility 7.0 miles
Clouds Scattered Clouds 1000 ft
Mostly Cloudy 1400 ft
Overcast 2200 ft
Dew Point 66 °F
Humidity 87%
Rainfall 0.20 in
Snow Depth Not available.
UV 3 out of 12
Pollen 8.70 out of 12
Air Quality Not available.
Flu Activity Local Activity
METAR KAIK 181555Z AUTO 00000KT 7SM RA SCT010 BKN014 OVC022 20/17 A3004 RMK AO2

More Conditions Fewer Conditions

10-Day Weather Forecast

Almanac

Astronomy

Apr. 18, 2015 Rise Set
Actual Time
Civil Twilight
Nautical Twilight
Astronomical Twilight
Moon
Length of Visible Light
Length of Day
Tomorrow will be .
, % of the Moon is Illuminated

Today's Extremes

State Highs State Lows

Community

WunderPhotos

Upload Photos

1,814,448 photos uploaded!

WunderBlogs® & News

Nearby

Air Quality

  Air Quality AQ Index Pollutant
Not available.

Snow Depth

Station Depth Elevation

Earthquake Activity

City Distance Mag. Time & Date
Minimum magnitude displayed is 2.5.

Coastal Water Temperatures

Place Temperature

Stations

Nearby Weather Stations

Station Location Temp. Windchill Dew Point Humidity Wind Precip. Elev Updated Type